sensor_id;sensor_type;location;lat;lon;timestamp;temperature;humidity
65369;HTU21D;51970;53.484;49.488;2022-09-19T00:00:43;19.55;80.81
65369;HTU21D;51970;53.484;49.488;2022-09-19T00:03:09;19.50;80.85
65369;HTU21D;51970;53.484;49.488;2022-09-19T00:05:42;19.43;81.24
65369;HTU21D;51970;53.484;49.488;2022-09-19T00:08:08;19.47;81.30
65369;HTU21D;51970;53.484;49.488;2022-09-19T00:10:39;19.57;80.50
65369;HTU21D;51970;53.484;49.488;2022-09-19T00:13:06;19.63;80.47
65369;HTU21D;51970;53.484;49.488;2022-09-19T00:15:44;19.60;80.51
65369;HTU21D;51970;53.484;49.488;2022-09-19T00:18:11;19.55;80.86
65369;HTU21D;51970;53.484;49.488;2022-09-19T00:20:41;19.50;81.11
65369;HTU21D;51970;53.484;49.488;2022-09-19T00:23:10;19.47;81.02
65369;HTU21D;51970;53.484;49.488;2022-09-19T00:26:00;19.42;81.39
65369;HTU21D;51970;53.484;49.488;2022-09-19T00:28:28;19.33;81.62
65369;HTU21D;51970;53.484;49.488;2022-09-19T00:30:55;19.45;81.30
65369;HTU21D;51970;53.484;49.488;2022-09-19T00:33:22;19.40;81.26
65369;HTU21D;51970;53.484;49.488;2022-09-19T00:35:49;19.29;81.32
65369;HTU21D;51970;53.484;49.488;2022-09-19T00:38:25;19.28;81.99
65369;HTU21D;51970;53.484;49.488;2022-09-19T00:40:51;19.27;82.04
65369;HTU21D;51970;53.484;49.488;2022-09-19T00:43:19;19.22;82.10
65369;HTU21D;51970;53.484;49.488;2022-09-19T00:45:45;19.20;82.31
65369;HTU21D;51970;53.484;49.488;2022-09-19T00:48:13;19.14;82.30
65369;HTU21D;51970;53.484;49.488;2022-09-19T00:50:44;19.03;82.87
65369;HTU21D;51970;53.484;49.488;2022-09-19T00:53:16;18.99;83.16
65369;HTU21D;51970;53.484;49.488;2022-09-19T00:55:43;18.98;83.22
65369;HTU21D;51970;53.484;49.488;2022-09-19T00:58:21;18.93;83.51
65369;HTU21D;51970;53.484;49.488;2022-09-19T01:00:47;18.84;83.65
65369;HTU21D;51970;53.484;49.488;2022-09-19T01:03:14;18.77;84.06
65369;HTU21D;51970;53.484;49.488;2022-09-19T01:06:12;18.70;84.55
65369;HTU21D;51970;53.484;49.488;2022-09-19T01:12:05;18.66;84.48
65369;HTU21D;51970;53.484;49.488;2022-09-19T01:31:00;18.63;84.21
65369;HTU21D;51970;53.484;49.488;2022-09-19T01:36:50;18.53;84.64
65369;HTU21D;51970;53.484;49.488;2022-09-19T01:39:22;18.56;84.11
65369;HTU21D;51970;53.484;49.488;2022-09-19T01:41:50;18.62;83.45
65369;HTU21D;51970;53.484;49.488;2022-09-19T01:44:18;18.56;83.07
65369;HTU21D;51970;53.484;49.488;2022-09-19T01:47:13;18.56;82.64
65369;HTU21D;51970;53.484;49.488;2022-09-19T01:55:40;18.42;82.39
65369;HTU21D;51970;53.484;49.488;2022-09-19T02:00:34;18.47;81.28
65369;HTU21D;51970;53.484;49.488;2022-09-19T02:03:15;18.51;80.77
65369;HTU21D;51970;53.484;49.488;2022-09-19T02:05:54;18.55;80.39
65369;HTU21D;51970;53.484;49.488;2022-09-19T02:08:27;18.54;79.93
65369;HTU21D;51970;53.484;49.488;2022-09-19T02:11:00;18.53;80.13
65369;HTU21D;51970;53.484;49.488;2022-09-19T02:13:31;18.53;79.93
65369;HTU21D;51970;53.484;49.488;2022-09-19T02:16:04;18.48;80.11
65369;HTU21D;51970;53.484;49.488;2022-09-19T02:21:14;18.39;80.23
65369;HTU21D;51970;53.484;49.488;2022-09-19T02:23:46;18.38;80.17
65369;HTU21D;51970;53.484;49.488;2022-09-19T02:26:15;18.43;79.67
65369;HTU21D;51970;53.484;49.488;2022-09-19T02:28:48;18.49;79.19
65369;HTU21D;51970;53.484;49.488;2022-09-19T02:31:17;18.52;79.04
65369;HTU21D;51970;53.484;49.488;2022-09-19T02:33:44;18.49;79.08
65369;HTU21D;51970;53.484;49.488;2022-09-19T02:38:52;18.48;78.72
65369;HTU21D;51970;53.484;49.488;2022-09-19T02:41:45;18.56;77.85
65369;HTU21D;51970;53.484;49.488;2022-09-19T02:44:22;18.66;77.53
65369;HTU21D;51970;53.484;49.488;2022-09-19T02:47:00;18.74;77.05
65369;HTU21D;51970;53.484;49.488;2022-09-19T02:49:45;18.93;75.68
65369;HTU21D;51970;53.484;49.488;2022-09-19T02:52:33;19.13;75.19
65369;HTU21D;51970;53.484;49.488;2022-09-19T02:55:11;19.24;74.95
65369;HTU21D;51970;53.484;49.488;2022-09-19T02:57:47;19.26;74.86
65369;HTU21D;51970;53.484;49.488;2022-09-19T03:00:15;19.33;74.60
65369;HTU21D;51970;53.484;49.488;2022-09-19T03:02:48;19.48;74.31
65369;HTU21D;51970;53.484;49.488;2022-09-19T03:05:20;19.61;73.86
65369;HTU21D;51970;53.484;49.488;2022-09-19T03:07:53;19.73;73.24
65369;HTU21D;51970;53.484;49.488;2022-09-19T03:10:23;19.90;72.97
65369;HTU21D;51970;53.484;49.488;2022-09-19T03:12:56;20.01;72.51
65369;HTU21D;51970;53.484;49.488;2022-09-19T03:15:43;20.07;72.50
65369;HTU21D;51970;53.484;49.488;2022-09-19T03:18:15;20.17;72.03
65369;HTU21D;51970;53.484;49.488;2022-09-19T03:20:48;20.27;71.63
65369;HTU21D;51970;53.484;49.488;2022-09-19T03:23:43;20.29;71.35
65369;HTU21D;51970;53.484;49.488;2022-09-19T03:26:18;20.31;71.49
65369;HTU21D;51970;53.484;49.488;2022-09-19T03:28:44;20.51;71.00
65369;HTU21D;51970;53.484;49.488;2022-09-19T03:31:10;20.57;70.70
65369;HTU21D;51970;53.484;49.488;2022-09-19T03:33:36;20.55;70.70
65369;HTU21D;51970;53.484;49.488;2022-09-19T03:36:05;20.55;70.39
65369;HTU21D;51970;53.484;49.488;2022-09-19T03:38:35;20.66;70.28
65369;HTU21D;51970;53.484;49.488;2022-09-19T03:41:02;20.76;70.02
65369;HTU21D;51970;53.484;49.488;2022-09-19T03:43:28;20.68;70.19
65369;HTU21D;51970;53.484;49.488;2022-09-19T03:45:56;20.49;70.64
65369;HTU21D;51970;53.484;49.488;2022-09-19T03:48:23;20.41;71.25
65369;HTU21D;51970;53.484;49.488;2022-09-19T03:50:49;20.36;71.41
65369;HTU21D;51970;53.484;49.488;2022-09-19T03:53:15;20.35;71.67
65369;HTU21D;51970;53.484;49.488;2022-09-19T03:55:42;20.26;72.11
65369;HTU21D;51970;53.484;49.488;2022-09-19T03:58:08;20.15;72.32
65369;HTU21D;51970;53.484;49.488;2022-09-19T04:00:36;20.06;72.98
65369;HTU21D;51970;53.484;49.488;2022-09-19T04:03:02;20.00;73.14
65369;HTU21D;51970;53.484;49.488;2022-09-19T04:05:28;19.97;73.29
65369;HTU21D;51970;53.484;49.488;2022-09-19T04:07:54;20.01;73.39
65369;HTU21D;51970;53.484;49.488;2022-09-19T04:10:21;20.11;73.12
65369;HTU21D;51970;53.484;49.488;2022-09-19T04:12:47;20.25;72.74
65369;HTU21D;51970;53.484;49.488;2022-09-19T04:15:14;20.40;72.46
65369;HTU21D;51970;53.484;49.488;2022-09-19T04:17:40;20.57;71.75
65369;HTU21D;51970;53.484;49.488;2022-09-19T04:20:07;20.81;70.78
65369;HTU21D;51970;53.484;49.488;2022-09-19T04:22:36;20.91;70.79
65369;HTU21D;51970;53.484;49.488;2022-09-19T04:25:05;20.91;70.55
65369;HTU21D;51970;53.484;49.488;2022-09-19T04:27:32;20.91;70.53
65369;HTU21D;51970;53.484;49.488;2022-09-19T04:29:59;20.81;70.84
65369;HTU21D;51970;53.484;49.488;2022-09-19T04:32:26;20.71;71.07
65369;HTU21D;51970;53.484;49.488;2022-09-19T04:34:52;20.62;71.73
65369;HTU21D;51970;53.484;49.488;2022-09-19T04:37:21;20.71;71.35
65369;HTU21D;51970;53.484;49.488;2022-09-19T04:39:48;20.79;71.01
65369;HTU21D;51970;53.484;49.488;2022-09-19T04:42:16;20.98;70.29
65369;HTU21D;51970;53.484;49.488;2022-09-19T04:44:42;21.14;69.52
65369;HTU21D;51970;53.484;49.488;2022-09-19T04:47:08;21.32;69.26
65369;HTU21D;51970;53.484;49.488;2022-09-19T04:49:37;21.43;68.45
65369;HTU21D;51970;53.484;49.488;2022-09-19T04:52:07;21.46;68.49
65369;HTU21D;51970;53.484;49.488;2022-09-19T04:54:35;21.37;68.87
65369;HTU21D;51970;53.484;49.488;2022-09-19T04:57:04;21.43;69.11
65369;HTU21D;51970;53.484;49.488;2022-09-19T04:59:35;21.36;69.07
65369;HTU21D;51970;53.484;49.488;2022-09-19T05:02:02;21.22;69.55
65369;HTU21D;51970;53.484;49.488;2022-09-19T05:04:32;21.17;69.92
65369;HTU21D;51970;53.484;49.488;2022-09-19T05:06:59;21.14;69.56
65369;HTU21D;51970;53.484;49.488;2022-09-19T05:09:25;21.18;70.05
65369;HTU21D;51970;53.484;49.488;2022-09-19T05:11:52;21.45;68.71
65369;HTU21D;51970;53.484;49.488;2022-09-19T05:14:19;21.60;68.29
65369;HTU21D;51970;53.484;49.488;2022-09-19T05:16:47;21.69;68.54
65369;HTU21D;51970;53.484;49.488;2022-09-19T05:19:16;21.99;67.50
65369;HTU21D;51970;53.484;49.488;2022-09-19T05:21:42;22.19;66.41
65369;HTU21D;51970;53.484;49.488;2022-09-19T05:24:10;22.21;66.86
65369;HTU21D;51970;53.484;49.488;2022-09-19T05:26:36;22.29;66.55
65369;HTU21D;51970;53.484;49.488;2022-09-19T05:29:06;22.36;66.85
65369;HTU21D;51970;53.484;49.488;2022-09-19T05:31:33;22.33;66.56
65369;HTU21D;51970;53.484;49.488;2022-09-19T05:34:01;22.36;67.25
65369;HTU21D;51970;53.484;49.488;2022-09-19T05:36:28;22.47;66.33
65369;HTU21D;51970;53.484;49.488;2022-09-19T05:38:56;22.50;66.62
65369;HTU21D;51970;53.484;49.488;2022-09-19T05:41:23;22.58;66.17
65369;HTU21D;51970;53.484;49.488;2022-09-19T05:43:49;22.67;66.25
65369;HTU21D;51970;53.484;49.488;2022-09-19T05:46:16;22.71;65.98
65369;HTU21D;51970;53.484;49.488;2022-09-19T05:48:42;22.92;65.67
65369;HTU21D;51970;53.484;49.488;2022-09-19T05:51:08;22.84;65.76
65369;HTU21D;51970;53.484;49.488;2022-09-19T05:53:34;22.62;66.86
65369;HTU21D;51970;53.484;49.488;2022-09-19T05:56:19;22.53;67.02
65369;HTU21D;51970;53.484;49.488;2022-09-19T05:58:45;22.50;67.60
65369;HTU21D;51970;53.484;49.488;2022-09-19T06:01:12;22.65;67.59
65369;HTU21D;51970;53.484;49.488;2022-09-19T06:03:39;22.81;66.78
65369;HTU21D;51970;53.484;49.488;2022-09-19T06:06:11;22.91;66.49
65369;HTU21D;51970;53.484;49.488;2022-09-19T06:08:40;23.00;66.20
65369;HTU21D;51970;53.484;49.488;2022-09-19T06:11:08;23.17;65.59
65369;HTU21D;51970;53.484;49.488;2022-09-19T06:13:34;23.27;65.32
65369;HTU21D;51970;53.484;49.488;2022-09-19T06:16:19;23.20;65.54
65369;HTU21D;51970;53.484;49.488;2022-09-19T06:18:46;22.95;66.78
65369;HTU21D;51970;53.484;49.488;2022-09-19T06:21:12;23.05;66.14
65369;HTU21D;51970;53.484;49.488;2022-09-19T06:23:39;22.97;66.50
65369;HTU21D;51970;53.484;49.488;2022-09-19T06:26:05;22.92;67.10
65369;HTU21D;51970;53.484;49.488;2022-09-19T06:28:31;22.92;66.86
65369;HTU21D;51970;53.484;49.488;2022-09-19T06:31:01;22.95;66.36
65369;HTU21D;51970;53.484;49.488;2022-09-19T06:33:30;22.87;66.59
65369;HTU21D;51970;53.484;49.488;2022-09-19T06:36:00;22.71;67.04
65369;HTU21D;51970;53.484;49.488;2022-09-19T06:38:28;22.65;67.91
65369;HTU21D;51970;53.484;49.488;2022-09-19T06:40:56;22.53;68.43
65369;HTU21D;51970;53.484;49.488;2022-09-19T06:43:22;22.37;70.58
65369;HTU21D;51970;53.484;49.488;2022-09-19T06:45:49;22.27;70.29
65369;HTU21D;51970;53.484;49.488;2022-09-19T06:48:15;22.21;71.17
65369;HTU21D;51970;53.484;49.488;2022-09-19T06:50:46;22.09;71.00
65369;HTU21D;51970;53.484;49.488;2022-09-19T06:53:14;22.01;71.56
65369;HTU21D;51970;53.484;49.488;2022-09-19T06:55:41;21.89;72.91
65369;HTU21D;51970;53.484;49.488;2022-09-19T06:58:07;21.80;74.06
65369;HTU21D;51970;53.484;49.488;2022-09-19T07:00:34;21.66;74.08
65369;HTU21D;51970;53.484;49.488;2022-09-19T07:03:06;21.57;75.56
65369;HTU21D;51970;53.484;49.488;2022-09-19T07:05:36;21.47;75.52
65369;HTU21D;51970;53.484;49.488;2022-09-19T07:08:02;21.35;76.09
65369;HTU21D;51970;53.484;49.488;2022-09-19T07:10:29;21.33;76.25
65369;HTU21D;51970;53.484;49.488;2022-09-19T07:12:57;21.32;77.03
65369;HTU21D;51970;53.484;49.488;2022-09-19T07:15:27;21.30;76.59
65369;HTU21D;51970;53.484;49.488;2022-09-19T07:17:55;21.36;76.48
65369;HTU21D;51970;53.484;49.488;2022-09-19T07:20:22;21.37;76.20
65369;HTU21D;51970;53.484;49.488;2022-09-19T07:22:58;21.45;75.85
65369;HTU21D;51970;53.484;49.488;2022-09-19T07:25:25;21.49;75.79
65369;HTU21D;51970;53.484;49.488;2022-09-19T07:28:00;21.50;75.73
65369;HTU21D;51970;53.484;49.488;2022-09-19T07:30:26;21.53;75.50
65369;HTU21D;51970;53.484;49.488;2022-09-19T07:32:58;21.63;75.12
65369;HTU21D;51970;53.484;49.488;2022-09-19T07:35:29;21.68;75.04
65369;HTU21D;51970;53.484;49.488;2022-09-19T07:37:55;21.74;74.96
65369;HTU21D;51970;53.484;49.488;2022-09-19T07:40:22;21.79;74.22
65369;HTU21D;51970;53.484;49.488;2022-09-19T07:42:49;21.88;73.15
65369;HTU21D;51970;53.484;49.488;2022-09-19T07:45:18;21.96;73.26
65369;HTU21D;51970;53.484;49.488;2022-09-19T07:47:46;22.08;72.81
65369;HTU21D;51970;53.484;49.488;2022-09-19T07:50:15;22.16;72.38
65369;HTU21D;51970;53.484;49.488;2022-09-19T07:52:45;22.28;71.90
65369;HTU21D;51970;53.484;49.488;2022-09-19T07:55:13;22.46;71.31
65369;HTU21D;51970;53.484;49.488;2022-09-19T07:57:54;22.54;70.95
65369;HTU21D;51970;53.484;49.488;2022-09-19T08:00:25;22.62;71.42
65369;HTU21D;51970;53.484;49.488;2022-09-19T08:02:59;22.70;70.26
65369;HTU21D;51970;53.484;49.488;2022-09-19T08:05:27;22.86;69.87
65369;HTU21D;51970;53.484;49.488;2022-09-19T08:07:54;23.00;69.47
65369;HTU21D;51970;53.484;49.488;2022-09-19T08:10:21;23.08;69.42
65369;HTU21D;51970;53.484;49.488;2022-09-19T08:12:48;23.09;68.35
65369;HTU21D;51970;53.484;49.488;2022-09-19T08:15:16;23.18;67.55
65369;HTU21D;51970;53.484;49.488;2022-09-19T08:17:59;23.29;67.78
65369;HTU21D;51970;53.484;49.488;2022-09-19T08:20:28;23.38;66.65
65369;HTU21D;51970;53.484;49.488;2022-09-19T08:23:06;23.42;66.62
65369;HTU21D;51970;53.484;49.488;2022-09-19T08:25:34;23.37;66.71
65369;HTU21D;51970;53.484;49.488;2022-09-19T08:28:01;23.29;66.50
65369;HTU21D;51970;53.484;49.488;2022-09-19T08:30:32;23.22;66.89
65369;HTU21D;51970;53.484;49.488;2022-09-19T08:32:59;23.21;67.25
65369;HTU21D;51970;53.484;49.488;2022-09-19T08:35:28;23.30;66.95
65369;HTU21D;51970;53.484;49.488;2022-09-19T08:37:57;23.67;65.84
65369;HTU21D;51970;53.484;49.488;2022-09-19T08:40:44;24.33;64.30
65369;HTU21D;51970;53.484;49.488;2022-09-19T08:46:20;25.21;60.99
65369;HTU21D;51970;53.484;49.488;2022-09-19T08:51:21;25.32;58.57
65369;HTU21D;51970;53.484;49.488;2022-09-19T08:53:54;24.91;59.29
65369;HTU21D;51970;53.484;49.488;2022-09-19T08:56:21;24.58;60.18
65369;HTU21D;51970;53.484;49.488;2022-09-19T08:58:57;24.31;60.54
65369;HTU21D;51970;53.484;49.488;2022-09-19T09:01:26;24.16;60.73
65369;HTU21D;51970;53.484;49.488;2022-09-19T09:12:29;23.82;61.09
65369;HTU21D;51970;53.484;49.488;2022-09-19T09:23:41;24.16;60.09
65369;HTU21D;51970;53.484;49.488;2022-09-19T09:26:15;24.20;59.87
65369;HTU21D;51970;53.484;49.488;2022-09-19T09:31:36;24.31;59.36
65369;HTU21D;51970;53.484;49.488;2022-09-19T09:34:30;24.61;60.40
65369;HTU21D;51970;53.484;49.488;2022-09-19T09:37:19;24.87;58.85
65369;HTU21D;51970;53.484;49.488;2022-09-19T09:39:53;24.91;57.83
65369;HTU21D;51970;53.484;49.488;2022-09-19T09:42:56;24.94;57.41
65369;HTU21D;51970;53.484;49.488;2022-09-19T09:45:34;24.86;57.36
65369;HTU21D;51970;53.484;49.488;2022-09-19T09:48:38;24.84;57.52
65369;HTU21D;51970;53.484;49.488;2022-09-19T09:59:36;24.80;56.61
65369;HTU21D;51970;53.484;49.488;2022-09-19T10:02:36;24.79;56.31
65369;HTU21D;51970;53.484;49.488;2022-09-19T10:05:31;24.80;56.15
65369;HTU21D;51970;53.484;49.488;2022-09-19T10:11:17;25.31;55.29
65369;HTU21D;51970;53.484;49.488;2022-09-19T10:14:02;25.43;54.58
65369;HTU21D;51970;53.484;49.488;2022-09-19T10:16:31;25.45;54.13
65369;HTU21D;51970;53.484;49.488;2022-09-19T10:21:46;25.84;53.95
65369;HTU21D;51970;53.484;49.488;2022-09-19T10:27:15;26.30;51.75
65369;HTU21D;51970;53.484;49.488;2022-09-19T10:29:54;26.50;52.16
65369;HTU21D;51970;53.484;49.488;2022-09-19T10:32:24;26.75;51.04
65369;HTU21D;51970;53.484;49.488;2022-09-19T10:34:51;26.93;49.83
65369;HTU21D;51970;53.484;49.488;2022-09-19T10:37:21;27.09;50.02
65369;HTU21D;51970;53.484;49.488;2022-09-19T10:39:48;26.89;50.11
65369;HTU21D;51970;53.484;49.488;2022-09-19T10:42:33;26.67;49.67
65369;HTU21D;51970;53.484;49.488;2022-09-19T10:45:44;26.61;50.40
65369;HTU21D;51970;53.484;49.488;2022-09-19T10:48:39;26.67;51.69
65369;HTU21D;51970;53.484;49.488;2022-09-19T10:51:12;26.71;50.34
65369;HTU21D;51970;53.484;49.488;2022-09-19T10:53:45;26.80;50.47
65369;HTU21D;51970;53.484;49.488;2022-09-19T11:01:26;27.23;49.05
65369;HTU21D;51970;53.484;49.488;2022-09-19T11:04:18;27.10;50.18
65369;HTU21D;51970;53.484;49.488;2022-09-19T11:07:05;26.71;50.46
65369;HTU21D;51970;53.484;49.488;2022-09-19T11:09:40;26.37;50.08
65369;HTU21D;51970;53.484;49.488;2022-09-19T11:12:11;26.11;50.98
65369;HTU21D;51970;53.484;49.488;2022-09-19T11:14:47;25.81;51.69
65369;HTU21D;51970;53.484;49.488;2022-09-19T11:29:03;24.73;56.61
65369;HTU21D;51970;53.484;49.488;2022-09-19T11:31:40;24.54;57.22
65369;HTU21D;51970;53.484;49.488;2022-09-19T11:43:34;24.21;56.00
65369;HTU21D;51970;53.484;49.488;2022-09-19T11:46:04;24.18;56.17
65369;HTU21D;51970;53.484;49.488;2022-09-19T11:52:05;23.95;59.21
65369;HTU21D;51970;53.484;49.488;2022-09-19T11:54:51;23.85;59.94
65369;HTU21D;51970;53.484;49.488;2022-09-19T11:57:37;23.74;61.69
65369;HTU21D;51970;53.484;49.488;2022-09-19T12:00:11;23.58;62.31
65369;HTU21D;51970;53.484;49.488;2022-09-19T12:08:18;23.45;61.79
65369;HTU21D;51970;53.484;49.488;2022-09-19T12:11:02;23.51;61.09
65369;HTU21D;51970;53.484;49.488;2022-09-19T12:16:22;23.54;61.45
65369;HTU21D;51970;53.484;49.488;2022-09-19T12:19:07;23.53;61.31
65369;HTU21D;51970;53.484;49.488;2022-09-19T12:21:43;23.54;60.35
65369;HTU21D;51970;53.484;49.488;2022-09-19T12:24:22;23.60;60.44
65369;HTU21D;51970;53.484;49.488;2022-09-19T12:27:25;23.81;61.15
65369;HTU21D;51970;53.484;49.488;2022-09-19T12:30:03;23.92;59.23
65369;HTU21D;51970;53.484;49.488;2022-09-19T12:35:40;24.03;58.66
65369;HTU21D;51970;53.484;49.488;2022-09-19T12:40:53;24.39;57.72
65369;HTU21D;51970;53.484;49.488;2022-09-19T12:43:26;24.53;55.52
65369;HTU21D;51970;53.484;49.488;2022-09-19T12:46:08;24.58;54.93
65369;HTU21D;51970;53.484;49.488;2022-09-19T12:51:17;24.40;54.06
65369;HTU21D;51970;53.484;49.488;2022-09-19T12:54:03;24.30;54.72
65369;HTU21D;51970;53.484;49.488;2022-09-19T12:56:35;24.21;55.07
65369;HTU21D;51970;53.484;49.488;2022-09-19T12:59:15;24.18;55.55
65369;HTU21D;51970;53.484;49.488;2022-09-19T13:01:48;24.16;56.11
65369;HTU21D;51970;53.484;49.488;2022-09-19T13:07:06;23.92;57.74
65369;HTU21D;51970;53.484;49.488;2022-09-19T13:10:11;23.87;58.03
65369;HTU21D;51970;53.484;49.488;2022-09-19T13:12:51;23.76;58.65
65369;HTU21D;51970;53.484;49.488;2022-09-19T13:18:12;23.58;59.66
65369;HTU21D;51970;53.484;49.488;2022-09-19T13:20:58;23.45;60.09
65369;HTU21D;51970;53.484;49.488;2022-09-19T13:23:51;23.39;60.12
65369;HTU21D;51970;53.484;49.488;2022-09-19T13:26:20;23.38;60.60
65369;HTU21D;51970;53.484;49.488;2022-09-19T13:29:04;23.29;61.00
65369;HTU21D;51970;53.484;49.488;2022-09-19T13:39:53;23.09;61.81
65369;HTU21D;51970;53.484;49.488;2022-09-19T13:42:27;23.05;62.01
65369;HTU21D;51970;53.484;49.488;2022-09-19T13:45:02;23.02;61.93
65369;HTU21D;51970;53.484;49.488;2022-09-19T13:47:31;22.96;62.69
65369;HTU21D;51970;53.484;49.488;2022-09-19T13:50:10;22.92;62.37
65369;HTU21D;51970;53.484;49.488;2022-09-19T13:52:48;22.86;62.95
65369;HTU21D;51970;53.484;49.488;2022-09-19T13:55:32;22.80;63.22
65369;HTU21D;51970;53.484;49.488;2022-09-19T13:58:31;22.78;63.00
65369;HTU21D;51970;53.484;49.488;2022-09-19T14:03:36;22.64;63.96
65369;HTU21D;51970;53.484;49.488;2022-09-19T14:06:18;22.57;63.54
65369;HTU21D;51970;53.484;49.488;2022-09-19T14:11:54;22.47;63.07
65369;HTU21D;51970;53.484;49.488;2022-09-19T14:19:49;22.48;63.46
65369;HTU21D;51970;53.484;49.488;2022-09-19T14:22:39;22.44;63.98
65369;HTU21D;51970;53.484;49.488;2022-09-19T14:25:23;22.41;64.37
65369;HTU21D;51970;53.484;49.488;2022-09-19T14:27:57;22.35;64.58
65369;HTU21D;51970;53.484;49.488;2022-09-19T14:47:48;21.91;66.69
65369;HTU21D;51970;53.484;49.488;2022-09-19T14:50:23;21.88;66.46
65369;HTU21D;51970;53.484;49.488;2022-09-19T14:53:11;21.90;66.46
65369;HTU21D;51970;53.484;49.488;2022-09-19T14:55:46;21.88;66.83
65369;HTU21D;51970;53.484;49.488;2022-09-19T15:03:26;21.75;67.39
65369;HTU21D;51970;53.484;49.488;2022-09-19T15:05:52;21.73;67.52
65369;HTU21D;51970;53.484;49.488;2022-09-19T15:08:28;21.78;67.36
65369;HTU21D;51970;53.484;49.488;2022-09-19T15:10:59;21.80;67.48
65369;HTU21D;51970;53.484;49.488;2022-09-19T15:13:26;21.79;67.50
65369;HTU21D;51970;53.484;49.488;2022-09-19T15:16:05;21.83;67.51
65369;HTU21D;51970;53.484;49.488;2022-09-19T15:18:38;21.83;67.40
65369;HTU21D;51970;53.484;49.488;2022-09-19T15:21:17;21.88;67.39
65369;HTU21D;51970;53.484;49.488;2022-09-19T15:23:44;21.93;67.16
65369;HTU21D;51970;53.484;49.488;2022-09-19T15:26:19;21.95;67.68
65369;HTU21D;51970;53.484;49.488;2022-09-19T15:31:23;21.94;68.16
65369;HTU21D;51970;53.484;49.488;2022-09-19T15:34:19;21.93;68.90
65369;HTU21D;51970;53.484;49.488;2022-09-19T15:36:45;21.92;69.08
65369;HTU21D;51970;53.484;49.488;2022-09-19T15:39:13;21.93;68.79
65369;HTU21D;51970;53.484;49.488;2022-09-19T15:41:41;21.90;69.15
65369;HTU21D;51970;53.484;49.488;2022-09-19T15:44:24;21.97;68.91
65369;HTU21D;51970;53.484;49.488;2022-09-19T15:46:50;21.97;69.07
65369;HTU21D;51970;53.484;49.488;2022-09-19T15:49:35;21.96;69.20
65369;HTU21D;51970;53.484;49.488;2022-09-19T15:52:12;21.87;69.92
65369;HTU21D;51970;53.484;49.488;2022-09-19T15:54:51;21.75;70.55
65369;HTU21D;51970;53.484;49.488;2022-09-19T15:57:49;21.64;71.01
65369;HTU21D;51970;53.484;49.488;2022-09-19T16:00:21;21.60;71.16
65369;HTU21D;51970;53.484;49.488;2022-09-19T16:02:51;21.55;71.59
65369;HTU21D;51970;53.484;49.488;2022-09-19T16:05:22;21.45;71.74
65369;HTU21D;51970;53.484;49.488;2022-09-19T16:07:52;21.43;71.63
65369;HTU21D;51970;53.484;49.488;2022-09-19T16:10:39;21.35;72.04
65369;HTU21D;51970;53.484;49.488;2022-09-19T16:13:35;21.27;72.99
65369;HTU21D;51970;53.484;49.488;2022-09-19T16:16:02;21.21;73.31
65369;HTU21D;51970;53.484;49.488;2022-09-19T16:18:46;21.14;73.64
65369;HTU21D;51970;53.484;49.488;2022-09-19T16:21:13;21.11;73.84
65369;HTU21D;51970;53.484;49.488;2022-09-19T16:23:43;21.06;74.24
65369;HTU21D;51970;53.484;49.488;2022-09-19T16:26:15;21.04;74.06
65369;HTU21D;51970;53.484;49.488;2022-09-19T16:28:47;21.00;74.78
65369;HTU21D;51970;53.484;49.488;2022-09-19T16:34:02;21.00;74.47
65369;HTU21D;51970;53.484;49.488;2022-09-19T16:36:31;20.98;74.28
65369;HTU21D;51970;53.484;49.488;2022-09-19T16:41:25;21.09;72.92
65369;HTU21D;51970;53.484;49.488;2022-09-19T16:44:03;21.15;71.20
65369;HTU21D;51970;53.484;49.488;2022-09-19T16:46:30;21.39;67.91
65369;HTU21D;51970;53.484;49.488;2022-09-19T16:48:56;21.70;66.76
65369;HTU21D;51970;53.484;49.488;2022-09-19T16:51:22;21.82;65.45
65369;HTU21D;51970;53.484;49.488;2022-09-19T16:53:50;22.01;64.62
65369;HTU21D;51970;53.484;49.488;2022-09-19T16:56:16;22.04;64.99
65369;HTU21D;51970;53.484;49.488;2022-09-19T16:58:46;21.98;64.05
65369;HTU21D;51970;53.484;49.488;2022-09-19T17:01:12;21.97;64.82
65369;HTU21D;51970;53.484;49.488;2022-09-19T17:03:39;21.90;64.81
65369;HTU21D;51970;53.484;49.488;2022-09-19T17:06:08;21.88;64.62
65369;HTU21D;51970;53.484;49.488;2022-09-19T17:08:35;21.79;63.86
65369;HTU21D;51970;53.484;49.488;2022-09-19T17:11:01;21.79;63.80
65369;HTU21D;51970;53.484;49.488;2022-09-19T17:13:27;21.78;63.50
65369;HTU21D;51970;53.484;49.488;2022-09-19T17:15:56;21.75;63.37
65369;HTU21D;51970;53.484;49.488;2022-09-19T17:18:26;21.70;63.83
65369;HTU21D;51970;53.484;49.488;2022-09-19T17:20:54;21.72;63.31
65369;HTU21D;51970;53.484;49.488;2022-09-19T17:23:20;21.68;63.72
65369;HTU21D;51970;53.484;49.488;2022-09-19T17:25:51;21.66;63.59
65369;HTU21D;51970;53.484;49.488;2022-09-19T17:28:24;21.58;63.91
65369;HTU21D;51970;53.484;49.488;2022-09-19T17:30:51;21.58;63.63
65369;HTU21D;51970;53.484;49.488;2022-09-19T17:33:19;21.55;63.83
65369;HTU21D;51970;53.484;49.488;2022-09-19T17:35:45;21.53;64.05
65369;HTU21D;51970;53.484;49.488;2022-09-19T17:38:12;21.42;64.38
65369;HTU21D;51970;53.484;49.488;2022-09-19T17:40:43;21.44;64.37
65369;HTU21D;51970;53.484;49.488;2022-09-19T17:43:14;21.46;64.44
65369;HTU21D;51970;53.484;49.488;2022-09-19T17:45:42;21.40;64.71
65369;HTU21D;51970;53.484;49.488;2022-09-19T17:48:10;21.32;65.14
65369;HTU21D;51970;53.484;49.488;2022-09-19T17:50:40;21.21;65.85
65369;HTU21D;51970;53.484;49.488;2022-09-19T17:53:08;21.17;66.14
65369;HTU21D;51970;53.484;49.488;2022-09-19T17:55:35;21.16;66.24
65369;HTU21D;51970;53.484;49.488;2022-09-19T17:58:03;21.11;66.79
65369;HTU21D;51970;53.484;49.488;2022-09-19T18:00:30;21.06;66.87
65369;HTU21D;51970;53.484;49.488;2022-09-19T18:02:56;21.04;67.07
65369;HTU21D;51970;53.484;49.488;2022-09-19T18:05:41;21.05;66.87
65369;HTU21D;51970;53.484;49.488;2022-09-19T18:08:07;21.02;67.13
65369;HTU21D;51970;53.484;49.488;2022-09-19T18:10:35;20.99;67.49
65369;HTU21D;51970;53.484;49.488;2022-09-19T18:13:02;20.92;67.77
65369;HTU21D;51970;53.484;49.488;2022-09-19T18:15:30;20.88;68.24
65369;HTU21D;51970;53.484;49.488;2022-09-19T18:17:57;20.80;68.43
65369;HTU21D;51970;53.484;49.488;2022-09-19T18:20:24;20.76;68.75
65369;HTU21D;51970;53.484;49.488;2022-09-19T18:22:55;20.70;68.94
65369;HTU21D;51970;53.484;49.488;2022-09-19T18:25:22;20.69;69.00
65369;HTU21D;51970;53.484;49.488;2022-09-19T18:27:52;20.69;68.84
65369;HTU21D;51970;53.484;49.488;2022-09-19T18:30:18;20.66;68.86
65369;HTU21D;51970;53.484;49.488;2022-09-19T18:32:46;20.64;69.04
65369;HTU21D;51970;53.484;49.488;2022-09-19T18:35:15;20.59;69.31